Latest Weather Observations for Sheoaks

IDV60801

Issued at 6:03 pm EDT Tuesday 21 February 2017 (issued every 30 minutes, with the page automatically refreshed every 10 minutes)

About weather observations | Map of weather stations | Latest weather observations for VIC | Other Formats
Station Details ID: 087168 Name: SHEOAKS Lat: -37.91 Lon: 144.13 Height: 236.7 m
Data from the previous 72 hours. | See also: Recent months at Sheoaks
Date/Time
EDT
Temp
°C
App
Temp
°C
Dew
Point
°C
Rel
Hum
%
Delta-T
°C
Wind Press
QNH
hPa
Press
MSL
hPa
Rain since
9am
mm
Dir  Spd
km/h
Gust
km/h
Spd
kts
Gust
kts
21/05:30pm 22.3 18.4 6.9 37 8.0 ESE 17 24 9 13 1017.9 1017.2 0.0
21/05:00pm 22.3 18.1 7.3 38 7.8 SE 19 32 10 17 1018.1 1017.4 0.0
21/04:30pm 22.9 18.7 7.4 37 8.2 SE 19 28 10 15 1018.2 1017.5 0.0
21/04:00pm 23.6 20.3 4.5 29 9.5 SE 11 22 6 12 1018.6 1017.9 0.0
21/03:30pm 22.6 20.1 4.6 31 9.0 NNE 7 13 4 7 1018.9 1018.2 0.0
21/03:00pm 21.9 19.1 5.3 34 8.3 SE 9 19 5 10 1019.3 1018.6 0.0
21/02:30pm 22.0 18.9 5.4 34 8.4 ESE 11 24 6 13 1019.7 1019.0 0.0
21/02:00pm 21.6 19.4 5.5 35 8.1 NNE 6 13 3 7 1020.0 1019.4 0.0
21/01:30pm 20.4 18.2 5.2 37 7.6 ESE 6 11 3 6 1020.3 1019.7 0.0
21/01:00pm 20.4 17.9 6.4 40 7.1 E 9 17 5 9 1020.3 1019.7 0.0
21/12:30pm 19.2 17.2 6.3 43 6.5 ENE 6 11 3 6 1021.2 1020.5 0.0
21/12:00pm 17.9 16.0 6.7 48 5.6 WNW 6 13 3 7 1021.7 1021.0 0.0
21/11:30am 18.2 16.4 7.9 51 5.3 ENE 7 11 4 6 1021.7 1021.0 0.0
21/11:00am 17.4 16.3 8.3 55 4.7 ENE 4 9 2 5 1021.5 1020.8 0.0
21/10:30am 15.3 13.6 7.6 60 3.9 W 6 9 3 5 1022.0 1021.3 0.0
21/10:00am 14.9 13.4 8.4 65 3.3 SSW 6 9 3 5 1022.0 1021.3 0.0
21/09:30am 13.9 12.8 9.9 77 2.1 SW 6 11 3 6 1022.0 1021.3 0.0
21/09:00am 11.5 10.4 9.9 90 0.8 NNW 6 7 3 4 1021.7 1021.0 0.2
21/08:30am 8.7 7.1 7.8 94 0.4 N 6 7 3 4 1021.2 1020.5 0.2
21/08:00am 6.8 4.5 5.9 94 0.4 N 7 7 4 4 1021.1 1020.4 0.2
21/07:30am 5.8 2.9 4.9 94 0.4 N 9 11 5 6 1020.7 1020.0 0.2
21/07:00am 5.6 2.7 4.6 93 0.4 N 9 9 5 5 1020.2 1019.6 0.2
21/06:30am 5.9 3.0 4.9 93 0.4 NNW 9 11 5 6 1019.8 1019.1 0.2
21/06:00am 6.1 3.3 5.1 93 0.4 N 9 11 5 6 1019.4 1018.7 0.2
21/05:30am 6.2 3.4 5.2 93 0.4 N 9 9 5 5 1019.1 1018.4 0.2
21/05:00am 6.7 4.4 5.7 93 0.5 N 7 7 4 4 1019.1 1018.4 0.2
21/04:30am 6.6 4.4 5.4 92 0.5 N 6 7 3 4 1019.1 1018.4 0.2
21/04:00am 6.6 4.4 5.4 92 0.5 NNW 6 9 3 5 1019.2 1018.5 0.2
21/03:30am 6.7 4.4 5.5 92 0.5 NNW 7 11 4 6 1019.1 1018.4 0.2
21/03:00am 6.7 4.5 5.5 92 0.5 NNW 6 9 3 5 1019.1 1018.4 0.2
21/02:30am 6.9 4.6 5.7 92 0.5 NNW 7 9 4 5 1019.0 1018.3 0.2
21/02:00am 7.1 4.8 5.7 91 0.6 NNW 7 9 4 5 1019.0 1018.3 0.2
21/01:30am 7.4 5.3 5.9 90 0.7 NNW 6 7 3 4 1019.4 1018.7 0.2
21/01:00am 7.6 5.5 5.9 89 0.8 NNW 6 7 3 4 1019.4 1018.7 0.2
21/12:30am 8.1 6.1 6.1 87 0.9 NW 6 7 3 4 1019.5 1018.8 0.2
21/12:00am 9.1 7.0 6.5 84 1.2 WNW 7 9 4 5 1019.4 1018.7 0.2
 
Date/Time
EDT
Temp
°C
App
Temp
°C
Dew
Point
°C
Rel
Hum
%
Delta-T
°C
Wind Press
QNH
hPa
Press
MSL
hPa
Rain since
9am
mm
Dir  Spd
km/h
Gust
km/h
Spd
kts
Gust
kts
20/11:30pm 10.1 7.7 7.2 82 1.4 W 9 11 5 6 1019.2 1018.5 0.2
20/11:00pm 10.3 8.2 6.6 78 1.8 W 7 11 4 6 1019.2 1018.5 0.2
20/10:30pm 10.9 8.5 6.8 76 2.0 W 9 13 5 7 1019.1 1018.4 0.2
20/10:00pm 11.3 8.8 6.4 72 2.3 W 9 15 5 8 1018.9 1018.2 0.2
20/09:30pm 12.2 9.6 6.3 67 2.8 WSW 9 15 5 8 1018.5 1017.8 0.2
20/09:00pm 13.0 10.4 6.1 63 3.3 WSW 9 15 5 8 1018.0 1017.3 0.2
20/08:30pm 13.8 10.7 5.7 58 3.9 WSW 11 22 6 12 1017.5 1016.8 0.2
20/08:00pm 14.8 11.3 5.6 54 4.4 WSW 13 20 7 11 1017.1 1016.4 0.2
20/07:30pm 15.5 11.5 5.1 50 5.0 WSW 15 30 8 16 1016.6 1015.9 0.2
20/07:00pm 15.8 11.4 4.5 47 5.3 WSW 17 28 9 15 1016.3 1015.5 0.2
20/06:30pm 16.4 11.9 4.1 44 5.8 WSW 17 30 9 16 1015.8 1015.1 0.2
20/06:00pm 16.8 12.0 4.8 45 5.8 SW 19 35 10 19 1015.4 1014.7 0.2
20/05:30pm 17.8 12.9 5.1 43 6.2 WSW 20 33 11 18 1015.0 1014.3 0.2
20/05:00pm 19.5 14.5 4.4 37 7.3 WSW 20 35 11 19 1014.6 1013.9 0.2
20/04:30pm 19.1 13.3 4.5 38 7.1 SW 24 39 13 21 1014.4 1013.7 0.2
20/04:00pm 18.5 13.1 4.7 40 6.7 WSW 22 43 12 23 1014.3 1013.6 0.2
20/03:30pm 18.5 13.2 5.0 41 6.6 SW 22 33 12 18 1014.0 1013.3 0.2
20/03:00pm 19.6 14.8 4.9 38 7.2 WSW 19 33 10 18 1014.0 1013.3 0.2
20/02:30pm 18.3 13.7 5.5 43 6.3 WSW 19 32 10 17 1013.9 1013.2 0.2
20/02:00pm 18.4 13.5 4.9 41 6.6 WSW 20 32 11 17 1014.0 1013.3 0.2
20/01:30pm 17.6 12.8 5.5 45 5.9 WSW 20 33 11 18 1014.0 1013.3 0.2
20/01:00pm 17.0 12.3 6.2 49 5.3 SW 20 35 11 19 1014.1 1013.4 0.2
20/12:30pm 17.5 13.0 7.0 50 5.3 WSW 20 33 11 18 1014.0 1013.3 0.2
20/12:00pm 15.8 11.5 7.8 59 4.1 WSW 20 35 11 19 1014.2 1013.5 0.2
20/11:30am 13.8 11.0 10.0 78 2.0 WSW 15 26 8 14 1014.4 1013.7 0.2
20/11:00am 14.2 9.6 8.2 67 3.0 W 22 35 12 19 1014.3 1013.6 0.0
20/10:30am 14.3 10.4 8.5 68 3.0 WSW 19 33 10 18 1014.2 1013.5 0.0
20/10:00am 13.2 9.3 8.7 74 2.3 WSW 19 28 10 15 1014.2 1013.5 0.0
20/09:30am 12.4 8.5 8.7 78 1.9 W 19 32 10 17 1014.1 1013.4 0.0
20/09:00am 11.6 7.1 8.5 81 1.5 W 22 33 12 18 1013.6 1012.9 6.8
20/08:30am 11.3 7.3 8.2 81 1.5 W 19 28 10 15 1013.2 1012.5 6.8
20/08:00am 10.6 6.9 8.0 84 1.3 W 17 28 9 15 1012.8 1012.1 6.8
20/07:30am 10.4 6.3 7.8 84 1.3 W 19 26 10 14 1012.2 1011.4 6.8
20/07:00am 10.1 6.0 7.7 85 1.2 W 19 30 10 16 1012.1 1011.3 6.8
20/06:30am 9.8 5.4 7.4 85 1.2 W 20 28 11 15 1011.7 1010.9 6.8
20/06:00am 10.0 5.2 7.4 84 1.3 W 22 32 12 17 1011.3 1010.6 6.8
20/05:30am 9.6 5.2 7.4 86 1.1 W 20 30 11 16 1011.1 1010.4 6.8
20/05:00am 9.8 5.6 7.4 85 1.2 W 19 30 10 16 1011.0 1010.3 6.8
20/04:30am 9.9 5.2 7.7 86 1.1 W 22 30 12 16 1010.8 1010.1 6.8
20/04:00am 10.0 5.6 7.4 84 1.3 W 20 33 11 18 1010.8 1010.1 6.8
20/03:30am 9.8 5.5 7.2 84 1.2 W 19 30 10 16 1010.7 1010.0 6.8
20/03:00am 9.6 5.4 7.5 87 1.0 WNW 19 30 10 16 1010.7 1010.0 6.8
20/02:30am 9.6 5.8 7.5 87 1.0 WNW 17 22 9 12 1010.6 1009.9 6.8
20/02:00am 9.8 5.4 7.6 86 1.1 WNW 20 33 11 18 1010.9 1010.2 6.8
20/01:30am 9.6 5.3 7.2 85 1.1 W 19 28 10 15 1010.9 1010.2 6.8
20/01:00am 9.6 5.1 6.9 83 1.3 WNW 20 30 11 16 1010.9 1010.2 6.8
20/12:30am 9.6 5.7 7.0 84 1.2 W 17 26 9 14 1011.0 1010.3 6.8
20/12:00am 9.4 4.8 6.7 83 1.3 W 20 32 11 17 1011.1 1010.4 6.8
 
Date/Time
EDT
Temp
°C
App
Temp
°C
Dew
Point
°C
Rel
Hum
%
Delta-T
°C
Wind Press
QNH
hPa
Press
MSL
hPa
Rain since
9am
mm
Dir  Spd
km/h
Gust
km/h
Spd
kts
Gust
kts
19/11:30pm 9.6 5.7 6.9 83 1.3 W 17 24 9 13 1011.1 1010.4 6.8
19/11:00pm 9.5 5.5 6.6 82 1.4 W 17 24 9 13 1011.1 1010.4 6.8
19/10:30pm 9.5 5.4 6.4 81 1.5 W 17 24 9 13 1011.2 1010.5 6.8
19/10:00pm 9.3 5.6 6.2 81 1.5 WNW 15 24 8 13 1011.1 1010.4 6.8
19/09:30pm 9.6 6.7 6.7 82 1.4 W 11 15 6 8 1010.9 1010.2 6.8
19/09:00pm 9.8 6.9 6.5 80 1.6 W 11 17 6 9 1010.6 1009.9 6.6
19/08:30pm 10.0 6.3 6.2 77 1.8 W 15 22 8 12 1010.2 1009.5 6.6
19/08:00pm 10.7 7.4 6.3 74 2.1 WSW 13 20 7 11 1009.9 1009.2 6.6
19/07:30pm 11.0 7.5 7.1 77 1.9 WSW 15 28 8 15 1009.5 1008.8 6.6
19/07:00pm 10.7 7.7 7.8 82 1.4 W 13 20 7 11 1009.3 1008.6 6.4
19/06:30pm 10.9 5.6 6.6 75 2.1 W 24 37 13 20 1009.1 1008.4 5.0
19/06:00pm 11.0 6.5 7.1 77 1.9 W 20 41 11 22 1009.0 1008.3 5.0
19/05:30pm 11.6 6.1 5.9 68 2.7 SW 24 41 13 22 1009.0 1008.3 4.8
19/05:00pm 13.4 8.3 5.8 60 3.6 WSW 22 37 12 20 1008.6 1007.8 4.8
19/04:30pm 14.3 7.9 5.1 54 4.4 WSW 28 46 15 25 1008.2 1007.4 4.8
19/04:06pm 14.8 8.1 3.9 48 5.1 W 28 46 15 25 1008.1 1007.3 4.8
19/04:00pm 15.3 10.1 5.5 52 4.7 WSW 22 43 12 23 1008.1 1007.3 4.8
19/03:30pm 14.3 9.7 8.0 66 3.2 WSW 22 35 12 19 1008.6 1007.8 4.8
19/03:00pm 10.8 5.5 6.6 75 2.0 SW 24 43 13 23 1008.7 1007.9 4.8
19/02:30pm 13.9 9.1 8.9 72 2.6 W 24 43 13 23 1008.4 1007.6 4.8
19/02:00pm 10.5 6.1 7.4 81 1.5 WNW 20 33 11 18 1008.9 1008.1 4.8
19/01:30pm 13.2 8.4 7.4 68 2.9 W 22 39 12 21 1008.5 1007.7 4.4
19/01:00pm 12.9 9.9 9.4 79 1.8 WNW 15 24 8 13 1009.2 1008.5 4.4
19/12:30pm 10.1 6.8 8.0 87 1.0 WNW 15 24 8 13 1009.7 1009.0 4.4
19/12:00pm 10.3 7.5 8.6 89 0.8 WSW 13 22 7 12 1010.3 1009.6 3.0
19/11:30am 10.7 7.3 9.1 90 0.8 W 17 26 9 14 1010.4 1009.7 2.2
19/11:00am 10.7 7.6 9.0 89 0.9 W 15 24 8 13 1010.4 1009.7 1.2
19/10:30am 10.9 6.9 9.0 88 1.0 W 20 32 11 17 1010.3 1009.6 1.0
19/10:00am 10.6 6.7 8.5 87 1.0 W 19 28 10 15 1010.2 1009.5 0.8
19/09:30am 10.8 6.3 8.4 85 1.2 WNW 22 33 12 18 1010.1 1009.4 0.2
19/09:00am 11.1 6.0 7.8 80 1.6 WNW 24 37 13 20 1009.9 1009.2 0.0
19/08:30am 10.8 6.5 7.7 81 1.5 WNW 20 35 11 19 1009.7 1009.0 0.0
19/08:00am 11.1 6.9 7.6 79 1.7 WNW 19 30 10 16 1009.6 1008.9 0.0
19/07:30am 10.1 6.2 7.2 82 1.4 WNW 17 28 9 15 1009.5 1008.8 0.0
19/07:00am 9.8 6.1 6.5 80 1.6 WNW 15 26 8 14 1009.4 1008.7 0.0
19/06:30am 9.3 5.9 5.9 79 1.6 NW 13 19 7 10 1009.2 1008.5 0.0
19/06:00am 9.2 5.0 5.6 78 1.7 NW 17 28 9 15 1009.1 1008.4 0.0
19/05:30am 9.2 4.9 5.4 77 1.7 NW 17 30 9 16 1009.6 1008.9 0.0
19/05:00am 8.4 4.4 5.0 79 1.5 NW 15 24 8 13 1009.7 1009.0 0.0
19/04:30am 7.8 4.1 4.6 80 1.4 NW 13 22 7 12 1009.8 1009.1 0.0
19/04:00am 8.1 3.7 4.5 78 1.6 NW 17 28 9 15 1010.0 1009.3 0.0
19/03:30am 8.3 4.6 4.5 77 1.7 NW 13 22 7 12 1010.3 1009.6 0.0
19/03:00am 8.2 4.5 4.4 77 1.7 NW 13 20 7 11 1010.3 1009.6 0.0
19/02:30am 8.5 5.2 4.5 76 1.8 NW 11 17 6 9 1010.8 1010.1 0.0
19/02:00am 9.0 5.4 4.8 75 1.9 NW 13 19 7 10 1011.1 1010.4 0.0
19/01:30am 8.4 5.0 4.2 75 1.9 NNW 11 17 6 9 1011.6 1010.8 0.0
19/01:00am 8.7 5.7 4.3 74 2.0 NNW 9 15 5 8 1012.0 1011.2 0.0
19/12:30am 10.0 6.7 4.8 70 2.4 NW 11 17 6 9 1012.0 1011.2 0.0
19/12:00am 9.8 6.9 4.4 69 2.4 WNW 9 17 5 9 1012.2 1011.4 0.0
 
Date/Time
EDT
Temp
°C
App
Temp
°C
Dew
Point
°C
Rel
Hum
%
Delta-T
°C
Wind Press
QNH
hPa
Press
MSL
hPa
Rain since
9am
mm
Dir  Spd
km/h
Gust
km/h
Spd
kts
Gust
kts
18/11:30pm 9.7 7.1 4.1 68 2.5 NW 7 11 4 6 1012.3 1011.5 0.0
18/11:00pm 10.3 7.7 4.0 65 2.8 WNW 7 9 4 5 1012.4 1011.6 0.0
18/10:30pm 10.6 7.6 4.1 64 2.9 W 9 13 5 7 1012.5 1011.7 0.0
18/10:00pm 11.7 8.3 4.0 59 3.5 WSW 11 17 6 9 1012.5 1011.7 0.0
18/09:30pm 12.3 8.9 3.8 56 3.9 WSW 11 19 6 10 1012.5 1011.7 0.0
18/09:00pm 13.2 9.8 3.8 53 4.3 W 11 19 6 10 1012.3 1011.5 0.0
18/08:30pm 13.8 9.2 3.6 50 4.7 W 17 24 9 13 1012.1 1011.3 0.0
18/08:00pm 13.5 10.2 4.4 54 4.2 WSW 11 19 6 10 1011.9 1011.1 0.0
18/07:30pm 14.3 11.4 4.9 53 4.4 WSW 9 17 5 9 1011.6 1010.8 0.0
18/07:00pm 15.4 11.3 4.2 47 5.3 WSW 15 22 8 12 1011.3 1010.6 0.0
18/06:30pm 14.9 10.1 4.6 50 4.9 SW 19 33 10 18 1011.3 1010.6 0.0

Other Formats:

Comma delimited format used in spreadsheet applications
http://www.bom.gov.au/fwo/IDV60801/IDV60801.94863.axf

JavaScript Object Notation format (JSON) in row-major order
http://www.bom.gov.au/fwo/IDV60801/IDV60801.94863.json